Capitol Logistics 906

Operating for DHL



EDDW
Bremen Airport
Bremen, DE
EDDK
Cologne Bonn Airport
Cologne, DE

Route Details

Aircraft Information
Group: European Fleet
Types: A30F,A31F,B738
Route Data
Demand: M
Distance: 145nm
Duration: 0h 40m
Recm'd Route: ERLAD2Z ERLAD Y804 PIROT N850 WRB P12 ESADU T858 KOPAG KOPAG24
Origin Wx: EDDW 242150Z AUTO 21004KT CAVOK 11/09 Q1010
Dest. Wx: EDDK 242150Z AUTO 14004KT 100V170 9999 SCT047 11/09 Q1012 NOSIG
Notes:

Financial History
Total Freight: 311,622lbs
Average Load: 44,517lbs/flt
Fuel Used: 43,614lbs
Avg. Fuel Used: 6,231lbs/flt
Fuel Expense: $13,543
Avg. Fuel Expense: $1,935
Avg. Fuel Cost: $0.31/lbs
Total Gross Income: $636,021
Pilot Pay: $1,663
Total Expenses: $94,602
Total Revenue: $517,646
Average Revenue: $90,860.07